sensor_id;sensor_type;location;lat;lon;timestamp;temperature;humidity
14210;DHT22;7188;56.070;12.698;2023-04-15T00:00:38;9.20;99.90
14210;DHT22;7188;56.070;12.698;2023-04-15T00:03:19;9.20;99.90
14210;DHT22;7188;56.070;12.698;2023-04-15T00:05:46;9.20;99.90
14210;DHT22;7188;56.070;12.698;2023-04-15T00:08:12;9.20;99.90
14210;DHT22;7188;56.070;12.698;2023-04-15T00:10:38;9.10;99.90
14210;DHT22;7188;56.070;12.698;2023-04-15T00:13:03;9.10;99.90
14210;DHT22;7188;56.070;12.698;2023-04-15T00:15:29;9.10;99.90
14210;DHT22;7188;56.070;12.698;2023-04-15T00:17:54;9.10;99.90
14210;DHT22;7188;56.070;12.698;2023-04-15T00:20:21;9.10;99.90
14210;DHT22;7188;56.070;12.698;2023-04-15T00:22:46;9.10;99.90
14210;DHT22;7188;56.070;12.698;2023-04-15T00:25:13;9.10;99.90
14210;DHT22;7188;56.070;12.698;2023-04-15T00:27:39;9.10;99.90
14210;DHT22;7188;56.070;12.698;2023-04-15T00:30:06;9.00;99.90
14210;DHT22;7188;56.070;12.698;2023-04-15T00:32:31;9.00;99.90
14210;DHT22;7188;56.070;12.698;2023-04-15T00:34:57;9.00;99.90
14210;DHT22;7188;56.070;12.698;2023-04-15T00:37:22;9.00;99.90
14210;DHT22;7188;56.070;12.698;2023-04-15T00:39:48;9.00;99.90
14210;DHT22;7188;56.070;12.698;2023-04-15T00:42:14;9.00;99.90
14210;DHT22;7188;56.070;12.698;2023-04-15T00:44:39;9.00;99.90
14210;DHT22;7188;56.070;12.698;2023-04-15T00:47:05;9.00;99.90
14210;DHT22;7188;56.070;12.698;2023-04-15T00:49:31;9.00;99.90
14210;DHT22;7188;56.070;12.698;2023-04-15T00:51:57;8.90;99.90
14210;DHT22;7188;56.070;12.698;2023-04-15T00:54:23;8.90;99.90
14210;DHT22;7188;56.070;12.698;2023-04-15T00:56:48;8.90;99.90
14210;DHT22;7188;56.070;12.698;2023-04-15T00:59:14;8.90;99.90
14210;DHT22;7188;56.070;12.698;2023-04-15T01:01:42;8.90;99.90
14210;DHT22;7188;56.070;12.698;2023-04-15T01:04:09;8.90;99.90
14210;DHT22;7188;56.070;12.698;2023-04-15T01:06:36;8.90;99.90
14210;DHT22;7188;56.070;12.698;2023-04-15T01:09:02;8.90;99.90
14210;DHT22;7188;56.070;12.698;2023-04-15T01:11:29;8.90;99.90
14210;DHT22;7188;56.070;12.698;2023-04-15T01:14:08;8.90;99.90
14210;DHT22;7188;56.070;12.698;2023-04-15T01:16:34;8.90;99.90
14210;DHT22;7188;56.070;12.698;2023-04-15T01:19:01;8.80;99.90
14210;DHT22;7188;56.070;12.698;2023-04-15T01:21:26;8.90;99.90
14210;DHT22;7188;56.070;12.698;2023-04-15T01:23:52;8.80;99.90
14210;DHT22;7188;56.070;12.698;2023-04-15T01:26:19;8.80;99.90
14210;DHT22;7188;56.070;12.698;2023-04-15T01:28:46;8.80;99.90
14210;DHT22;7188;56.070;12.698;2023-04-15T01:31:13;8.80;99.90
14210;DHT22;7188;56.070;12.698;2023-04-15T01:33:40;8.80;99.90
14210;DHT22;7188;56.070;12.698;2023-04-15T01:36:07;8.80;99.90
14210;DHT22;7188;56.070;12.698;2023-04-15T01:38:35;8.80;99.90
14210;DHT22;7188;56.070;12.698;2023-04-15T01:41:01;8.80;99.90
14210;DHT22;7188;56.070;12.698;2023-04-15T01:43:28;8.80;99.90
14210;DHT22;7188;56.070;12.698;2023-04-15T01:45:54;8.80;99.90
14210;DHT22;7188;56.070;12.698;2023-04-15T01:48:21;8.80;99.90
14210;DHT22;7188;56.070;12.698;2023-04-15T01:50:47;8.90;99.90
14210;DHT22;7188;56.070;12.698;2023-04-15T01:53:13;8.90;99.90
14210;DHT22;7188;56.070;12.698;2023-04-15T01:55:39;8.90;99.90
14210;DHT22;7188;56.070;12.698;2023-04-15T01:58:05;8.90;99.90
14210;DHT22;7188;56.070;12.698;2023-04-15T02:00:31;8.90;99.90
14210;DHT22;7188;56.070;12.698;2023-04-15T02:02:57;9.00;99.90
14210;DHT22;7188;56.070;12.698;2023-04-15T02:05:23;9.00;99.90
14210;DHT22;7188;56.070;12.698;2023-04-15T02:07:49;9.00;99.90
14210;DHT22;7188;56.070;12.698;2023-04-15T02:10:15;8.90;99.90
14210;DHT22;7188;56.070;12.698;2023-04-15T02:12:50;9.00;99.90
14210;DHT22;7188;56.070;12.698;2023-04-15T02:15:16;9.00;99.90
14210;DHT22;7188;56.070;12.698;2023-04-15T02:17:41;9.00;99.90
14210;DHT22;7188;56.070;12.698;2023-04-15T02:20:10;9.00;99.90
14210;DHT22;7188;56.070;12.698;2023-04-15T02:22:36;9.00;99.90
14210;DHT22;7188;56.070;12.698;2023-04-15T02:25:02;9.00;99.90
14210;DHT22;7188;56.070;12.698;2023-04-15T02:27:28;9.00;99.90
14210;DHT22;7188;56.070;12.698;2023-04-15T02:29:54;8.90;99.90
14210;DHT22;7188;56.070;12.698;2023-04-15T02:32:20;8.90;99.90
14210;DHT22;7188;56.070;12.698;2023-04-15T02:34:48;9.00;99.90
14210;DHT22;7188;56.070;12.698;2023-04-15T02:37:14;8.90;99.90
14210;DHT22;7188;56.070;12.698;2023-04-15T02:39:40;9.00;99.90
14210;DHT22;7188;56.070;12.698;2023-04-15T02:42:06;8.90;99.90
14210;DHT22;7188;56.070;12.698;2023-04-15T02:44:32;8.90;99.90
14210;DHT22;7188;56.070;12.698;2023-04-15T02:46:58;9.00;99.90
14210;DHT22;7188;56.070;12.698;2023-04-15T02:49:24;9.00;99.90
14210;DHT22;7188;56.070;12.698;2023-04-15T02:51:50;8.90;99.90
14210;DHT22;7188;56.070;12.698;2023-04-15T02:54:17;8.90;99.90
14210;DHT22;7188;56.070;12.698;2023-04-15T02:56:42;9.00;99.90
14210;DHT22;7188;56.070;12.698;2023-04-15T02:59:08;9.00;99.90
14210;DHT22;7188;56.070;12.698;2023-04-15T03:01:33;9.00;99.90
14210;DHT22;7188;56.070;12.698;2023-04-15T03:03:59;9.00;99.90
14210;DHT22;7188;56.070;12.698;2023-04-15T03:06:25;9.00;99.90
14210;DHT22;7188;56.070;12.698;2023-04-15T03:08:51;9.00;99.90
14210;DHT22;7188;56.070;12.698;2023-04-15T03:11:18;9.00;99.90
14210;DHT22;7188;56.070;12.698;2023-04-15T03:13:43;9.00;99.90
14210;DHT22;7188;56.070;12.698;2023-04-15T03:16:09;9.00;99.90
14210;DHT22;7188;56.070;12.698;2023-04-15T03:18:35;9.00;99.90
14210;DHT22;7188;56.070;12.698;2023-04-15T03:21:01;9.00;99.90
14210;DHT22;7188;56.070;12.698;2023-04-15T03:23:27;9.00;99.90
14210;DHT22;7188;56.070;12.698;2023-04-15T03:25:53;9.00;99.90
14210;DHT22;7188;56.070;12.698;2023-04-15T03:28:21;9.00;99.90
14210;DHT22;7188;56.070;12.698;2023-04-15T03:30:47;8.90;99.90
14210;DHT22;7188;56.070;12.698;2023-04-15T03:33:12;8.90;99.90
14210;DHT22;7188;56.070;12.698;2023-04-15T03:35:38;8.90;99.90
14210;DHT22;7188;56.070;12.698;2023-04-15T03:38:03;8.90;99.90
14210;DHT22;7188;56.070;12.698;2023-04-15T03:40:29;8.90;99.90
14210;DHT22;7188;56.070;12.698;2023-04-15T03:42:55;8.90;99.90
14210;DHT22;7188;56.070;12.698;2023-04-15T03:45:20;8.90;99.90
14210;DHT22;7188;56.070;12.698;2023-04-15T03:47:46;8.90;99.90
14210;DHT22;7188;56.070;12.698;2023-04-15T03:50:12;8.90;99.90
14210;DHT22;7188;56.070;12.698;2023-04-15T03:52:37;8.90;99.90
14210;DHT22;7188;56.070;12.698;2023-04-15T03:55:03;8.90;99.90
14210;DHT22;7188;56.070;12.698;2023-04-15T03:57:29;8.90;99.90
14210;DHT22;7188;56.070;12.698;2023-04-15T03:59:55;8.90;99.90
14210;DHT22;7188;56.070;12.698;2023-04-15T04:02:21;8.90;99.90
14210;DHT22;7188;56.070;12.698;2023-04-15T04:05:18;8.90;99.90
14210;DHT22;7188;56.070;12.698;2023-04-15T04:07:44;8.90;99.90
14210;DHT22;7188;56.070;12.698;2023-04-15T04:10:10;8.80;99.90
14210;DHT22;7188;56.070;12.698;2023-04-15T04:12:35;8.80;99.90
14210;DHT22;7188;56.070;12.698;2023-04-15T04:15:01;8.80;99.90
14210;DHT22;7188;56.070;12.698;2023-04-15T04:17:26;8.70;99.90
14210;DHT22;7188;56.070;12.698;2023-04-15T04:19:52;8.70;99.90
14210;DHT22;7188;56.070;12.698;2023-04-15T04:22:21;8.70;99.90
14210;DHT22;7188;56.070;12.698;2023-04-15T04:24:47;8.70;99.90
14210;DHT22;7188;56.070;12.698;2023-04-15T04:27:13;8.60;99.90
14210;DHT22;7188;56.070;12.698;2023-04-15T04:29:39;8.60;99.90
14210;DHT22;7188;56.070;12.698;2023-04-15T04:32:04;8.60;99.90
14210;DHT22;7188;56.070;12.698;2023-04-15T04:34:30;8.60;99.90
14210;DHT22;7188;56.070;12.698;2023-04-15T04:36:56;8.60;99.90
14210;DHT22;7188;56.070;12.698;2023-04-15T04:39:22;8.60;99.90
14210;DHT22;7188;56.070;12.698;2023-04-15T04:41:48;8.60;99.90
14210;DHT22;7188;56.070;12.698;2023-04-15T04:44:14;8.60;99.90
14210;DHT22;7188;56.070;12.698;2023-04-15T04:46:43;8.60;99.90
14210;DHT22;7188;56.070;12.698;2023-04-15T04:49:08;8.60;99.90
14210;DHT22;7188;56.070;12.698;2023-04-15T04:51:34;8.60;99.90
14210;DHT22;7188;56.070;12.698;2023-04-15T04:54:00;8.70;99.90
14210;DHT22;7188;56.070;12.698;2023-04-15T04:56:26;8.70;99.90
14210;DHT22;7188;56.070;12.698;2023-04-15T04:58:51;8.70;99.90
14210;DHT22;7188;56.070;12.698;2023-04-15T05:01:17;8.80;99.90
14210;DHT22;7188;56.070;12.698;2023-04-15T05:03:43;8.80;84.60
14210;DHT22;7188;56.070;12.698;2023-04-15T05:06:09;8.80;73.60
14210;DHT22;7188;56.070;12.698;2023-04-15T05:08:35;8.80;72.80
14210;DHT22;7188;56.070;12.698;2023-04-15T05:11:01;8.80;57.00
14210;DHT22;7188;56.070;12.698;2023-04-15T05:13:27;8.90;8.00
14210;DHT22;7188;56.070;12.698;2023-04-15T05:15:54;8.90;16.20
14210;DHT22;7188;56.070;12.698;2023-04-15T05:18:20;9.00;8.50
14210;DHT22;7188;56.070;12.698;2023-04-15T05:20:45;9.00;1.00
14210;DHT22;7188;56.070;12.698;2023-04-15T05:23:11;9.00;1.00
14210;DHT22;7188;56.070;12.698;2023-04-15T05:25:37;9.00;1.00
14210;DHT22;7188;56.070;12.698;2023-04-15T05:28:02;9.10;1.00
14210;DHT22;7188;56.070;12.698;2023-04-15T05:30:28;9.10;1.00
14210;DHT22;7188;56.070;12.698;2023-04-15T05:32:53;9.20;1.00
14210;DHT22;7188;56.070;12.698;2023-04-15T05:35:19;9.20;1.00
14210;DHT22;7188;56.070;12.698;2023-04-15T05:37:45;9.20;1.00
14210;DHT22;7188;56.070;12.698;2023-04-15T05:40:11;9.30;1.00
14210;DHT22;7188;56.070;12.698;2023-04-15T05:42:36;9.30;1.00
14210;DHT22;7188;56.070;12.698;2023-04-15T05:45:03;9.40;1.00
14210;DHT22;7188;56.070;12.698;2023-04-15T05:47:30;9.50;1.00
14210;DHT22;7188;56.070;12.698;2023-04-15T05:49:56;9.50;1.00
14210;DHT22;7188;56.070;12.698;2023-04-15T05:52:23;9.60;99.90
14210;DHT22;7188;56.070;12.698;2023-04-15T05:54:49;9.60;99.90
14210;DHT22;7188;56.070;12.698;2023-04-15T05:57:15;9.70;19.70
14210;DHT22;7188;56.070;12.698;2023-04-15T05:59:40;9.80;93.30
14210;DHT22;7188;56.070;12.698;2023-04-15T06:02:07;9.80;1.00
14210;DHT22;7188;56.070;12.698;2023-04-15T06:04:34;9.90;99.90
14210;DHT22;7188;56.070;12.698;2023-04-15T06:06:59;9.90;99.90
14210;DHT22;7188;56.070;12.698;2023-04-15T06:09:25;9.90;2.60
14210;DHT22;7188;56.070;12.698;2023-04-15T06:11:51;10.00;99.90
14210;DHT22;7188;56.070;12.698;2023-04-15T06:14:16;10.20;99.90
14210;DHT22;7188;56.070;12.698;2023-04-15T06:16:42;10.30;1.00
14210;DHT22;7188;56.070;12.698;2023-04-15T06:19:07;10.40;2.30
14210;DHT22;7188;56.070;12.698;2023-04-15T06:21:33;10.50;99.90
14210;DHT22;7188;56.070;12.698;2023-04-15T06:23:59;10.50;99.90
14210;DHT22;7188;56.070;12.698;2023-04-15T06:26:28;10.50;1.00
14210;DHT22;7188;56.070;12.698;2023-04-15T06:28:53;10.70;1.00
14210;DHT22;7188;56.070;12.698;2023-04-15T06:31:20;10.70;99.90
14210;DHT22;7188;56.070;12.698;2023-04-15T06:33:45;10.90;99.90
14210;DHT22;7188;56.070;12.698;2023-04-15T06:36:11;10.90;99.90
14210;DHT22;7188;56.070;12.698;2023-04-15T06:38:36;10.80;1.00
14210;DHT22;7188;56.070;12.698;2023-04-15T06:41:03;11.00;1.00
14210;DHT22;7188;56.070;12.698;2023-04-15T06:43:29;11.00;1.00
14210;DHT22;7188;56.070;12.698;2023-04-15T06:45:55;11.20;1.00
14210;DHT22;7188;56.070;12.698;2023-04-15T06:48:21;11.20;99.90
14210;DHT22;7188;56.070;12.698;2023-04-15T06:50:48;11.30;1.00
14210;DHT22;7188;56.070;12.698;2023-04-15T06:53:13;11.40;99.90
14210;DHT22;7188;56.070;12.698;2023-04-15T06:55:40;11.40;58.80
14210;DHT22;7188;56.070;12.698;2023-04-15T06:58:06;11.40;99.90
14210;DHT22;7188;56.070;12.698;2023-04-15T07:00:32;11.40;80.70
14210;DHT22;7188;56.070;12.698;2023-04-15T07:02:58;11.50;99.90
14210;DHT22;7188;56.070;12.698;2023-04-15T07:05:28;11.60;1.00
14210;DHT22;7188;56.070;12.698;2023-04-15T07:07:53;11.50;1.00
14210;DHT22;7188;56.070;12.698;2023-04-15T07:10:20;11.50;1.00
14210;DHT22;7188;56.070;12.698;2023-04-15T07:12:46;11.50;1.00
14210;DHT22;7188;56.070;12.698;2023-04-15T07:15:12;11.50;1.00
14210;DHT22;7188;56.070;12.698;2023-04-15T07:17:37;11.70;1.00
14210;DHT22;7188;56.070;12.698;2023-04-15T07:20:09;11.70;1.00
14210;DHT22;7188;56.070;12.698;2023-04-15T07:22:35;11.60;1.00
14210;DHT22;7188;56.070;12.698;2023-04-15T07:25:01;11.70;1.00
14210;DHT22;7188;56.070;12.698;2023-04-15T07:27:26;11.70;99.90
14210;DHT22;7188;56.070;12.698;2023-04-15T07:29:52;11.90;99.90
14210;DHT22;7188;56.070;12.698;2023-04-15T07:32:18;12.00;99.90
14210;DHT22;7188;56.070;12.698;2023-04-15T07:34:44;12.20;99.90
14210;DHT22;7188;56.070;12.698;2023-04-15T07:37:10;12.30;99.90
14210;DHT22;7188;56.070;12.698;2023-04-15T07:39:35;12.50;1.00
14210;DHT22;7188;56.070;12.698;2023-04-15T07:42:02;12.70;99.90
14210;DHT22;7188;56.070;12.698;2023-04-15T07:44:28;12.80;99.90
14210;DHT22;7188;56.070;12.698;2023-04-15T07:46:55;12.90;99.90
14210;DHT22;7188;56.070;12.698;2023-04-15T07:49:21;13.00;1.00
14210;DHT22;7188;56.070;12.698;2023-04-15T07:51:46;13.00;1.00
14210;DHT22;7188;56.070;12.698;2023-04-15T07:54:13;13.00;1.00
14210;DHT22;7188;56.070;12.698;2023-04-15T07:56:39;12.90;1.00
14210;DHT22;7188;56.070;12.698;2023-04-15T07:59:05;12.90;1.00
14210;DHT22;7188;56.070;12.698;2023-04-15T08:01:31;12.90;1.00
14210;DHT22;7188;56.070;12.698;2023-04-15T08:04:00;13.00;1.00
14210;DHT22;7188;56.070;12.698;2023-04-15T08:06:26;13.00;1.00
14210;DHT22;7188;56.070;12.698;2023-04-15T08:08:52;13.10;1.00
14210;DHT22;7188;56.070;12.698;2023-04-15T08:11:19;13.00;1.00
14210;DHT22;7188;56.070;12.698;2023-04-15T08:13:46;13.10;1.00
14210;DHT22;7188;56.070;12.698;2023-04-15T08:16:22;13.20;1.00
14210;DHT22;7188;56.070;12.698;2023-04-15T08:18:50;13.10;1.00
14210;DHT22;7188;56.070;12.698;2023-04-15T08:21:17;13.00;1.00
14210;DHT22;7188;56.070;12.698;2023-04-15T08:23:44;13.10;1.00
14210;DHT22;7188;56.070;12.698;2023-04-15T08:26:10;13.10;99.90
14210;DHT22;7188;56.070;12.698;2023-04-15T08:28:38;13.20;99.90
14210;DHT22;7188;56.070;12.698;2023-04-15T08:31:04;13.20;99.90
14210;DHT22;7188;56.070;12.698;2023-04-15T08:33:29;13.50;99.90
14210;DHT22;7188;56.070;12.698;2023-04-15T08:35:55;13.60;99.90
14210;DHT22;7188;56.070;12.698;2023-04-15T08:38:21;13.60;99.90
14210;DHT22;7188;56.070;12.698;2023-04-15T08:40:47;13.70;99.90
14210;DHT22;7188;56.070;12.698;2023-04-15T08:43:20;13.70;99.90
14210;DHT22;7188;56.070;12.698;2023-04-15T08:45:49;13.80;99.90
14210;DHT22;7188;56.070;12.698;2023-04-15T08:48:16;14.00;99.90
14210;DHT22;7188;56.070;12.698;2023-04-15T08:50:42;14.00;99.90
14210;DHT22;7188;56.070;12.698;2023-04-15T08:53:09;14.10;99.90
14210;DHT22;7188;56.070;12.698;2023-04-15T08:55:35;14.10;99.90
14210;DHT22;7188;56.070;12.698;2023-04-15T08:58:04;14.00;99.90
14210;DHT22;7188;56.070;12.698;2023-04-15T09:00:31;14.10;99.90
14210;DHT22;7188;56.070;12.698;2023-04-15T09:02:58;14.20;99.90
14210;DHT22;7188;56.070;12.698;2023-04-15T09:05:24;14.20;99.90
14210;DHT22;7188;56.070;12.698;2023-04-15T09:07:50;14.40;99.90
14210;DHT22;7188;56.070;12.698;2023-04-15T09:10:16;14.40;99.90
14210;DHT22;7188;56.070;12.698;2023-04-15T09:12:42;14.30;99.90
14210;DHT22;7188;56.070;12.698;2023-04-15T09:15:10;14.40;99.90
14210;DHT22;7188;56.070;12.698;2023-04-15T09:17:43;14.50;99.90
14210;DHT22;7188;56.070;12.698;2023-04-15T09:20:13;14.20;99.90
14210;DHT22;7188;56.070;12.698;2023-04-15T09:22:41;14.20;99.90
14210;DHT22;7188;56.070;12.698;2023-04-15T09:25:28;14.10;99.90
14210;DHT22;7188;56.070;12.698;2023-04-15T09:27:56;14.10;99.90
14210;DHT22;7188;56.070;12.698;2023-04-15T09:30:23;14.30;99.90
14210;DHT22;7188;56.070;12.698;2023-04-15T09:33:00;14.30;99.90
14210;DHT22;7188;56.070;12.698;2023-04-15T09:35:35;14.20;99.90
14210;DHT22;7188;56.070;12.698;2023-04-15T09:38:05;14.30;99.90
14210;DHT22;7188;56.070;12.698;2023-04-15T09:40:35;14.50;99.90
14210;DHT22;7188;56.070;12.698;2023-04-15T09:43:02;14.60;99.90
14210;DHT22;7188;56.070;12.698;2023-04-15T09:45:29;14.50;99.90
14210;DHT22;7188;56.070;12.698;2023-04-15T09:47:57;14.40;99.90
14210;DHT22;7188;56.070;12.698;2023-04-15T09:50:26;14.50;99.90
14210;DHT22;7188;56.070;12.698;2023-04-15T09:52:53;14.40;99.90
14210;DHT22;7188;56.070;12.698;2023-04-15T09:55:19;14.60;99.90
14210;DHT22;7188;56.070;12.698;2023-04-15T09:57:45;14.60;99.90
14210;DHT22;7188;56.070;12.698;2023-04-15T10:00:14;14.60;99.90
14210;DHT22;7188;56.070;12.698;2023-04-15T10:02:40;14.70;99.90
14210;DHT22;7188;56.070;12.698;2023-04-15T10:05:09;14.60;99.90
14210;DHT22;7188;56.070;12.698;2023-04-15T10:07:37;14.70;99.90
14210;DHT22;7188;56.070;12.698;2023-04-15T10:10:03;14.60;99.90
14210;DHT22;7188;56.070;12.698;2023-04-15T10:12:30;14.50;99.90
14210;DHT22;7188;56.070;12.698;2023-04-15T10:14:59;14.50;99.90
14210;DHT22;7188;56.070;12.698;2023-04-15T10:17:27;14.40;99.90
14210;DHT22;7188;56.070;12.698;2023-04-15T10:20:00;14.50;99.90
14210;DHT22;7188;56.070;12.698;2023-04-15T10:22:27;14.60;99.90
14210;DHT22;7188;56.070;12.698;2023-04-15T10:24:55;15.00;99.90
14210;DHT22;7188;56.070;12.698;2023-04-15T10:27:21;15.00;91.50
14210;DHT22;7188;56.070;12.698;2023-04-15T10:29:48;15.10;93.30
14210;DHT22;7188;56.070;12.698;2023-04-15T10:32:17;15.20;92.00
14210;DHT22;7188;56.070;12.698;2023-04-15T10:34:44;15.30;74.30
14210;DHT22;7188;56.070;12.698;2023-04-15T10:37:10;15.10;46.80
14210;DHT22;7188;56.070;12.698;2023-04-15T10:42:11;15.10;50.10
14210;DHT22;7188;56.070;12.698;2023-04-15T10:44:41;15.30;58.40
14210;DHT22;7188;56.070;12.698;2023-04-15T10:47:15;15.50;35.60
14210;DHT22;7188;56.070;12.698;2023-04-15T10:49:46;15.60;31.20
14210;DHT22;7188;56.070;12.698;2023-04-15T10:52:13;15.40;14.10
14210;DHT22;7188;56.070;12.698;2023-04-15T10:54:40;15.30;1.00
14210;DHT22;7188;56.070;12.698;2023-04-15T10:57:06;15.30;1.90
14210;DHT22;7188;56.070;12.698;2023-04-15T10:59:59;15.40;9.30
14210;DHT22;7188;56.070;12.698;2023-04-15T11:02:51;15.50;1.00
14210;DHT22;7188;56.070;12.698;2023-04-15T11:05:18;15.40;1.00
14210;DHT22;7188;56.070;12.698;2023-04-15T11:07:55;15.50;1.00
14210;DHT22;7188;56.070;12.698;2023-04-15T11:12:52;15.50;1.00
14210;DHT22;7188;56.070;12.698;2023-04-15T11:17:50;15.60;1.00
14210;DHT22;7188;56.070;12.698;2023-04-15T11:20:17;15.60;1.00
14210;DHT22;7188;56.070;12.698;2023-04-15T11:22:50;15.70;1.00
14210;DHT22;7188;56.070;12.698;2023-04-15T11:25:35;15.90;1.00
14210;DHT22;7188;56.070;12.698;2023-04-15T11:28:04;16.00;1.00
14210;DHT22;7188;56.070;12.698;2023-04-15T11:30:32;16.00;1.00
14210;DHT22;7188;56.070;12.698;2023-04-15T11:33:01;16.00;1.00
14210;DHT22;7188;56.070;12.698;2023-04-15T11:35:27;16.10;1.00
14210;DHT22;7188;56.070;12.698;2023-04-15T11:37:53;16.20;1.00
14210;DHT22;7188;56.070;12.698;2023-04-15T11:40:28;16.10;1.00
14210;DHT22;7188;56.070;12.698;2023-04-15T11:43:14;16.20;1.00
14210;DHT22;7188;56.070;12.698;2023-04-15T11:45:54;16.00;1.00
14210;DHT22;7188;56.070;12.698;2023-04-15T11:48:28;16.40;1.00
14210;DHT22;7188;56.070;12.698;2023-04-15T11:53:36;16.20;1.00
14210;DHT22;7188;56.070;12.698;2023-04-15T11:56:02;16.20;1.00
14210;DHT22;7188;56.070;12.698;2023-04-15T11:58:29;16.10;1.00
14210;DHT22;7188;56.070;12.698;2023-04-15T12:00:58;16.20;1.00
14210;DHT22;7188;56.070;12.698;2023-04-15T12:03:50;16.00;1.00
14210;DHT22;7188;56.070;12.698;2023-04-15T12:06:24;15.80;1.00
14210;DHT22;7188;56.070;12.698;2023-04-15T12:11:50;15.60;1.00
14210;DHT22;7188;56.070;12.698;2023-04-15T12:14:27;15.60;1.00
14210;DHT22;7188;56.070;12.698;2023-04-15T12:16:58;15.90;1.00
14210;DHT22;7188;56.070;12.698;2023-04-15T12:22:04;15.90;1.00
14210;DHT22;7188;56.070;12.698;2023-04-15T12:24:32;16.00;1.00
14210;DHT22;7188;56.070;12.698;2023-04-15T12:27:05;16.30;1.00
14210;DHT22;7188;56.070;12.698;2023-04-15T12:29:32;16.20;1.00
14210;DHT22;7188;56.070;12.698;2023-04-15T12:32:07;16.40;1.00
14210;DHT22;7188;56.070;12.698;2023-04-15T12:34:36;16.20;1.00
14210;DHT22;7188;56.070;12.698;2023-04-15T12:37:04;16.00;1.00
14210;DHT22;7188;56.070;12.698;2023-04-15T12:39:33;15.60;1.00
14210;DHT22;7188;56.070;12.698;2023-04-15T12:41:59;15.60;1.00
14210;DHT22;7188;56.070;12.698;2023-04-15T12:44:26;15.70;1.00
14210;DHT22;7188;56.070;12.698;2023-04-15T12:46:52;15.80;1.00
14210;DHT22;7188;56.070;12.698;2023-04-15T12:49:22;15.70;1.00
14210;DHT22;7188;56.070;12.698;2023-04-15T12:51:49;15.70;1.00
14210;DHT22;7188;56.070;12.698;2023-04-15T12:54:16;15.60;1.00
14210;DHT22;7188;56.070;12.698;2023-04-15T12:56:42;15.50;1.00
14210;DHT22;7188;56.070;12.698;2023-04-15T12:59:08;15.60;1.00
14210;DHT22;7188;56.070;12.698;2023-04-15T13:01:34;15.50;1.00
14210;DHT22;7188;56.070;12.698;2023-04-15T13:04:00;15.60;1.00
14210;DHT22;7188;56.070;12.698;2023-04-15T13:06:26;15.60;1.00
14210;DHT22;7188;56.070;12.698;2023-04-15T13:08:53;15.60;1.00
14210;DHT22;7188;56.070;12.698;2023-04-15T13:11:21;15.30;1.00
14210;DHT22;7188;56.070;12.698;2023-04-15T13:13:46;15.30;1.00
14210;DHT22;7188;56.070;12.698;2023-04-15T13:16:12;15.50;1.00
14210;DHT22;7188;56.070;12.698;2023-04-15T13:18:38;15.60;1.00
14210;DHT22;7188;56.070;12.698;2023-04-15T13:21:03;15.50;1.00
14210;DHT22;7188;56.070;12.698;2023-04-15T13:23:32;15.30;1.00
14210;DHT22;7188;56.070;12.698;2023-04-15T13:25:57;15.30;1.00
14210;DHT22;7188;56.070;12.698;2023-04-15T13:28:23;15.30;1.00
14210;DHT22;7188;56.070;12.698;2023-04-15T13:30:49;15.50;1.00
14210;DHT22;7188;56.070;12.698;2023-04-15T13:33:16;15.50;1.00
14210;DHT22;7188;56.070;12.698;2023-04-15T13:35:42;15.40;1.00
14210;DHT22;7188;56.070;12.698;2023-04-15T13:38:07;15.40;1.00
14210;DHT22;7188;56.070;12.698;2023-04-15T13:40:33;15.40;1.00
14210;DHT22;7188;56.070;12.698;2023-04-15T13:42:59;15.30;1.00
14210;DHT22;7188;56.070;12.698;2023-04-15T13:45:25;15.40;1.00
14210;DHT22;7188;56.070;12.698;2023-04-15T13:47:51;15.40;1.00
14210;DHT22;7188;56.070;12.698;2023-04-15T13:50:17;15.10;1.00
14210;DHT22;7188;56.070;12.698;2023-04-15T13:52:43;15.20;1.00
14210;DHT22;7188;56.070;12.698;2023-04-15T13:55:09;15.10;1.00
14210;DHT22;7188;56.070;12.698;2023-04-15T13:57:35;15.00;1.00
14210;DHT22;7188;56.070;12.698;2023-04-15T14:00:07;15.00;1.00
14210;DHT22;7188;56.070;12.698;2023-04-15T14:02:33;15.10;1.00
14210;DHT22;7188;56.070;12.698;2023-04-15T14:04:58;15.00;1.00
14210;DHT22;7188;56.070;12.698;2023-04-15T14:07:24;14.90;1.00
14210;DHT22;7188;56.070;12.698;2023-04-15T14:09:50;14.90;1.00
14210;DHT22;7188;56.070;12.698;2023-04-15T14:12:15;14.90;1.00
14210;DHT22;7188;56.070;12.698;2023-04-15T14:14:47;14.90;1.00
14210;DHT22;7188;56.070;12.698;2023-04-15T14:17:13;14.90;1.00
14210;DHT22;7188;56.070;12.698;2023-04-15T14:19:38;14.90;1.00
14210;DHT22;7188;56.070;12.698;2023-04-15T14:22:04;14.90;1.00
14210;DHT22;7188;56.070;12.698;2023-04-15T14:24:30;14.90;1.00
14210;DHT22;7188;56.070;12.698;2023-04-15T14:26:57;15.00;1.00
14210;DHT22;7188;56.070;12.698;2023-04-15T14:29:23;15.00;1.00
14210;DHT22;7188;56.070;12.698;2023-04-15T14:31:48;15.10;1.00
14210;DHT22;7188;56.070;12.698;2023-04-15T14:34:15;15.10;1.00
14210;DHT22;7188;56.070;12.698;2023-04-15T14:36:41;15.10;1.00
14210;DHT22;7188;56.070;12.698;2023-04-15T14:39:07;15.10;1.00
14210;DHT22;7188;56.070;12.698;2023-04-15T14:41:33;14.90;1.00
14210;DHT22;7188;56.070;12.698;2023-04-15T14:43:58;14.80;1.00
14210;DHT22;7188;56.070;12.698;2023-04-15T14:46:25;14.90;1.00
14210;DHT22;7188;56.070;12.698;2023-04-15T14:48:50;14.90;1.00
14210;DHT22;7188;56.070;12.698;2023-04-15T14:51:17;14.90;1.00
14210;DHT22;7188;56.070;12.698;2023-04-15T14:53:44;14.80;1.00
14210;DHT22;7188;56.070;12.698;2023-04-15T14:56:10;14.80;1.00
14210;DHT22;7188;56.070;12.698;2023-04-15T14:58:35;14.80;1.00
14210;DHT22;7188;56.070;12.698;2023-04-15T15:01:02;14.70;1.00
14210;DHT22;7188;56.070;12.698;2023-04-15T15:03:43;14.60;1.00
14210;DHT22;7188;56.070;12.698;2023-04-15T15:06:08;14.50;1.00
14210;DHT22;7188;56.070;12.698;2023-04-15T15:08:34;14.50;1.00
14210;DHT22;7188;56.070;12.698;2023-04-15T15:11:01;14.60;1.00
14210;DHT22;7188;56.070;12.698;2023-04-15T15:13:26;14.70;1.00
14210;DHT22;7188;56.070;12.698;2023-04-15T15:15:52;14.70;1.00
14210;DHT22;7188;56.070;12.698;2023-04-15T15:18:18;14.80;1.00
14210;DHT22;7188;56.070;12.698;2023-04-15T15:20:43;14.70;1.00
14210;DHT22;7188;56.070;12.698;2023-04-15T15:23:09;14.60;1.00
14210;DHT22;7188;56.070;12.698;2023-04-15T15:25:35;14.60;1.00
14210;DHT22;7188;56.070;12.698;2023-04-15T15:28:01;14.70;1.00
14210;DHT22;7188;56.070;12.698;2023-04-15T15:30:26;14.60;1.00
14210;DHT22;7188;56.070;12.698;2023-04-15T15:32:52;14.60;1.00
14210;DHT22;7188;56.070;12.698;2023-04-15T15:35:17;14.70;1.00
14210;DHT22;7188;56.070;12.698;2023-04-15T15:37:44;14.60;1.00
14210;DHT22;7188;56.070;12.698;2023-04-15T15:40:10;14.60;1.00
14210;DHT22;7188;56.070;12.698;2023-04-15T15:42:36;14.50;1.00
14210;DHT22;7188;56.070;12.698;2023-04-15T15:45:03;14.40;1.00
14210;DHT22;7188;56.070;12.698;2023-04-15T15:47:29;14.30;1.00
14210;DHT22;7188;56.070;12.698;2023-04-15T15:49:54;14.20;1.00
14210;DHT22;7188;56.070;12.698;2023-04-15T15:52:20;14.10;1.00
14210;DHT22;7188;56.070;12.698;2023-04-15T15:54:46;14.10;1.00
14210;DHT22;7188;56.070;12.698;2023-04-15T15:57:12;14.10;1.00